createdAt,value
2022-11-05T00:01:08.582Z,100.00
2022-11-05T00:03:53.876Z,100.00
2022-11-05T00:06:39.552Z,100.00
2022-11-05T00:09:28.134Z,100.00
2022-11-05T00:12:13.313Z,100.00
2022-11-05T00:14:58.525Z,100.00
2022-11-05T00:17:25.514Z,100.00
2022-11-05T00:19:52.198Z,100.00
2022-11-05T00:22:37.701Z,100.00
2022-11-05T00:25:17.378Z,100.00
2022-11-05T00:27:49.166Z,100.00
2022-11-05T00:30:18.648Z,100.00
2022-11-05T00:32:47.670Z,100.00
2022-11-05T00:35:15.259Z,100.00
2022-11-05T00:37:48.733Z,100.00
2022-11-05T00:40:16.563Z,100.00
2022-11-05T00:43:22.015Z,100.00
2022-11-05T00:45:48.710Z,100.00
2022-11-05T00:48:34.259Z,100.00
2022-11-05T00:51:01.137Z,100.00
2022-11-05T00:53:27.990Z,100.00
2022-11-05T00:55:54.825Z,100.00
2022-11-05T00:58:22.739Z,100.00
2022-11-05T01:00:54.563Z,100.00
2022-11-05T01:03:23.585Z,100.00
2022-11-05T01:05:53.312Z,100.00
2022-11-05T01:08:22.077Z,100.00
2022-11-05T01:10:51.853Z,100.00
2022-11-05T01:13:21.751Z,100.00
2022-11-05T01:15:50.936Z,100.00
2022-11-05T01:18:19.363Z,100.00
2022-11-05T01:20:46.417Z,100.00
2022-11-05T01:23:13.971Z,100.00
2022-11-05T01:25:42.075Z,100.00
2022-11-05T01:28:09.750Z,100.00
2022-11-05T01:30:37.598Z,100.00
2022-11-05T01:33:04.400Z,100.00
2022-11-05T01:35:31.048Z,100.00
2022-11-05T01:37:58.046Z,100.00
2022-11-05T01:40:25.884Z,100.00
2022-11-05T01:42:52.884Z,100.00
2022-11-05T01:45:27.931Z,100.00
2022-11-05T01:48:03.032Z,100.00
2022-11-05T01:50:39.066Z,100.00
2022-11-05T01:53:15.191Z,100.00
2022-11-05T01:55:51.421Z,100.00
2022-11-05T01:58:22.929Z,100.00
2022-11-05T02:00:49.709Z,100.00
2022-11-05T02:03:18.075Z,100.00
2022-11-05T02:05:45.761Z,100.00
2022-11-05T02:08:22.532Z,100.00
2022-11-05T02:10:49.886Z,100.00
2022-11-05T02:13:16.702Z,100.00
2022-11-05T02:16:13.833Z,100.00
2022-11-05T02:19:05.148Z,100.00
2022-11-05T02:21:56.072Z,100.00
2022-11-05T02:24:53.309Z,100.00
2022-11-05T02:27:48.301Z,100.00
2022-11-05T02:30:33.752Z,100.00
2022-11-05T02:33:34.474Z,100.00
2022-11-05T02:36:13.509Z,100.00
2022-11-05T02:38:59.556Z,100.00
2022-11-05T02:41:52.673Z,100.00
2022-11-05T02:44:31.268Z,100.00
2022-11-05T02:47:04.254Z,100.00
2022-11-05T02:50:14.628Z,100.00
2022-11-05T02:52:58.905Z,100.00
2022-11-05T02:55:32.689Z,100.00
2022-11-05T02:58:02.190Z,100.00
2022-11-05T03:00:48.376Z,100.00
2022-11-05T03:03:28.905Z,100.00
2022-11-05T03:06:16.622Z,100.00
2022-11-05T03:08:55.570Z,100.00
2022-11-05T03:11:25.592Z,100.00
2022-11-05T03:14:21.548Z,100.00
2022-11-05T03:17:12.893Z,100.00
2022-11-05T03:19:53.782Z,100.00
2022-11-05T03:22:37.077Z,100.00
2022-11-05T03:25:11.833Z,100.00
2022-11-05T03:27:43.262Z,100.00
2022-11-05T03:30:13.176Z,100.00
2022-11-05T03:32:46.407Z,100.00
2022-11-05T03:35:26.005Z,100.00
2022-11-05T03:37:58.473Z,100.00
2022-11-05T03:40:26.323Z,100.00
2022-11-05T03:42:57.163Z,100.00
2022-11-05T03:45:36.303Z,100.00
2022-11-05T03:48:05.597Z,100.00
2022-11-05T03:51:13.975Z,100.00
2022-11-05T03:53:50.140Z,100.00
2022-11-05T03:56:31.742Z,100.00
2022-11-05T03:59:00.833Z,100.00
2022-11-05T04:01:29.121Z,100.00
2022-11-05T04:03:56.100Z,100.00
2022-11-05T04:06:41.804Z,100.00
2022-11-05T04:09:28.713Z,100.00
2022-11-05T04:12:14.018Z,100.00
2022-11-05T04:14:40.748Z,100.00
2022-11-05T04:17:07.487Z,100.00
2022-11-05T04:19:57.242Z,100.00
2022-11-05T04:22:44.042Z,100.00
2022-11-05T04:25:11.502Z,100.00
2022-11-05T04:27:39.494Z,100.00
2022-11-05T04:30:18.957Z,100.00
2022-11-05T04:33:13.038Z,100.00
2022-11-05T04:35:47.713Z,100.00
2022-11-05T04:38:17.733Z,100.00
2022-11-05T04:40:45.232Z,100.00
2022-11-05T04:43:18.923Z,100.00
2022-11-05T04:45:46.172Z,100.00
2022-11-05T04:48:13.079Z,100.00
2022-11-05T04:50:39.936Z,100.00
2022-11-05T04:53:06.807Z,100.00
2022-11-05T04:55:33.577Z,100.00
2022-11-05T04:58:00.159Z,100.00
2022-11-05T05:00:27.019Z,100.00
2022-11-05T05:02:53.781Z,100.00
2022-11-05T05:05:22.648Z,100.00
2022-11-05T05:07:49.259Z,100.00
2022-11-05T05:10:16.003Z,100.00
2022-11-05T05:12:42.688Z,100.00
2022-11-05T05:15:09.443Z,100.00
2022-11-05T05:17:36.140Z,100.00
2022-11-05T05:20:21.271Z,100.00
2022-11-05T05:22:55.343Z,100.00
2022-11-05T05:25:23.938Z,100.00
2022-11-05T05:27:50.853Z,100.00
2022-11-05T05:30:17.976Z,100.00
2022-11-05T05:32:45.560Z,100.00
2022-11-05T05:35:12.295Z,100.00
2022-11-05T05:37:39.550Z,100.00
2022-11-05T05:40:06.898Z,100.00
2022-11-05T05:42:37.464Z,100.00
2022-11-05T05:45:07.299Z,100.00
2022-11-05T05:47:34.195Z,100.00
2022-11-05T05:50:00.854Z,100.00
2022-11-05T05:52:27.571Z,100.00
2022-11-05T05:54:54.175Z,100.00
2022-11-05T05:57:21.039Z,100.00
2022-11-05T05:59:47.797Z,100.00
2022-11-05T06:02:14.622Z,100.00
2022-11-05T06:04:41.695Z,100.00
2022-11-05T06:07:08.485Z,100.00
2022-11-05T06:09:35.373Z,100.00
2022-11-05T06:12:02.220Z,100.00
2022-11-05T06:14:28.748Z,100.00
2022-11-05T06:16:55.564Z,100.00
2022-11-05T06:19:22.289Z,100.00
2022-11-05T06:21:49.199Z,100.00
2022-11-05T06:24:16.469Z,100.00
2022-11-05T06:26:43.538Z,100.00
2022-11-05T06:29:12.684Z,100.00
2022-11-05T06:31:39.764Z,100.00
2022-11-05T06:34:06.566Z,100.00
2022-11-05T06:36:33.675Z,100.00
2022-11-05T06:39:00.355Z,100.00
2022-11-05T06:41:27.220Z,100.00
2022-11-05T06:43:53.834Z,100.00
2022-11-05T06:46:20.676Z,100.00
2022-11-05T06:48:47.519Z,100.00
2022-11-05T06:51:14.588Z,100.00
2022-11-05T06:53:41.135Z,100.00
2022-11-05T06:56:08.199Z,100.00
2022-11-05T06:58:34.939Z,100.00
2022-11-05T07:01:11.469Z,100.00
2022-11-05T07:09:28.711Z,100.00
2022-11-05T07:11:55.759Z,100.00
2022-11-05T07:14:22.632Z,100.00
2022-11-05T07:16:49.747Z,100.00
2022-11-05T07:19:16.556Z,100.00
2022-11-05T07:21:43.129Z,100.00
2022-11-05T07:24:17.128Z,100.00
2022-11-05T07:26:43.877Z,100.00
2022-11-05T07:29:10.598Z,100.00
2022-11-05T07:31:37.405Z,100.00
2022-11-05T07:34:24.423Z,100.00
2022-11-05T07:36:51.253Z,100.00
2022-11-05T07:39:18.108Z,100.00
2022-11-05T07:41:44.778Z,100.00
2022-11-05T07:44:11.907Z,100.00
2022-11-05T07:46:38.679Z,100.00
2022-11-05T07:49:05.784Z,97.79
2022-11-05T07:51:32.550Z,95.15
2022-11-05T07:53:59.301Z,93.45
2022-11-05T07:56:27.119Z,92.05
2022-11-05T07:58:54.130Z,87.93
2022-11-05T08:01:21.112Z,85.61
2022-11-05T08:03:47.943Z,83.04
2022-11-05T08:06:15.246Z,82.67
2022-11-05T08:08:42.424Z,81.48
2022-11-05T08:11:11.652Z,79.63
2022-11-05T08:13:41.111Z,78.10
2022-11-05T08:16:08.152Z,84.93
2022-11-05T08:18:35.203Z,84.50
2022-11-05T08:21:04.404Z,81.29
2022-11-05T08:23:32.485Z,78.23
2022-11-05T08:25:59.479Z,76.16
2022-11-05T08:28:26.622Z,75.47
2022-11-05T08:30:55.844Z,73.26
2022-11-05T08:33:24.840Z,71.80
2022-11-05T08:35:51.902Z,71.96
2022-11-05T08:38:20.204Z,72.47
2022-11-05T08:40:57.766Z,72.97
2022-11-05T08:43:24.704Z,72.01
2022-11-05T08:45:51.491Z,72.13
2022-11-05T08:48:19.480Z,73.16
2022-11-05T08:50:48.386Z,72.26
2022-11-05T08:53:16.285Z,69.93
2022-11-05T08:55:44.173Z,69.60
2022-11-05T08:58:15.284Z,67.76
2022-11-05T09:00:43.342Z,69.61
2022-11-05T09:03:10.937Z,68.78
2022-11-05T09:05:40.031Z,67.54
2022-11-05T09:08:18.462Z,66.89
2022-11-05T09:10:46.690Z,67.53
2022-11-05T09:13:18.778Z,64.77
2022-11-05T09:15:48.392Z,66.35
2022-11-05T09:18:16.239Z,66.48
2022-11-05T09:20:43.638Z,65.39
2022-11-05T09:23:15.015Z,64.86
2022-11-05T09:25:42.343Z,64.07
2022-11-05T09:28:23.988Z,64.26
2022-11-05T09:30:53.029Z,66.27
2022-11-05T09:36:16.632Z,65.45
2022-11-05T09:38:43.739Z,64.07
2022-11-05T09:41:23.889Z,61.82
2022-11-05T09:44:01.694Z,60.13
2022-11-05T09:46:48.672Z,60.01
2022-11-05T09:49:48.181Z,60.11
2022-11-05T09:52:28.161Z,60.25
2022-11-05T09:54:56.319Z,60.41
2022-11-05T09:57:35.521Z,61.36
2022-11-05T10:00:06.922Z,61.11
2022-11-05T10:02:50.588Z,60.45
2022-11-05T10:05:19.175Z,59.82
2022-11-05T10:07:53.579Z,59.64
2022-11-05T10:10:43.806Z,58.29
2022-11-05T10:13:20.598Z,57.62
2022-11-05T10:15:59.110Z,56.33
2022-11-05T10:18:35.884Z,56.69
2022-11-05T10:21:03.425Z,55.90
2022-11-05T10:23:30.698Z,54.96
2022-11-05T10:26:03.477Z,54.62
2022-11-05T10:28:33.693Z,54.23
2022-11-05T10:36:57.165Z,51.55
2022-11-05T10:39:27.898Z,51.87
2022-11-05T10:42:42.540Z,51.59
2022-11-05T10:45:18.244Z,51.75
2022-11-05T10:47:44.927Z,51.65
2022-11-05T10:50:15.904Z,51.80
2022-11-05T10:53:06.985Z,51.07
2022-11-05T10:55:38.076Z,50.67
2022-11-05T10:58:32.812Z,50.42
2022-11-05T11:00:59.974Z,50.39
2022-11-05T11:03:37.942Z,49.47
2022-11-05T11:06:12.947Z,49.26
2022-11-05T11:08:43.676Z,48.98
2022-11-05T11:11:13.161Z,48.72
2022-11-05T11:14:06.981Z,48.01
2022-11-05T11:16:39.858Z,47.48
2022-11-05T11:19:25.783Z,47.63
2022-11-05T11:22:04.412Z,47.80
2022-11-05T11:24:38.063Z,47.29
2022-11-05T11:27:10.358Z,47.38
2022-11-05T11:29:44.011Z,46.31
2022-11-05T11:32:17.710Z,46.14
2022-11-05T11:34:47.036Z,45.59
2022-11-05T11:37:19.779Z,46.21
2022-11-05T11:39:55.149Z,46.20
2022-11-05T11:42:26.398Z,46.29
2022-11-05T11:44:53.575Z,46.67
2022-11-05T11:47:22.227Z,46.49
2022-11-05T11:49:54.701Z,46.52
2022-11-05T11:52:31.235Z,46.34
2022-11-05T11:55:28.198Z,45.69
2022-11-05T11:58:06.347Z,45.59
2022-11-05T12:00:41.364Z,45.54
2022-11-05T12:03:41.885Z,46.20
2022-11-05T12:06:22.414Z,47.08
2022-11-05T12:09:32.811Z,47.51
2022-11-05T12:12:07.784Z,47.59
2022-11-05T12:14:46.063Z,47.54
2022-11-05T12:17:43.595Z,47.87
2022-11-05T12:20:56.944Z,47.49
2022-11-05T12:23:49.531Z,46.97
2022-11-05T12:26:34.156Z,46.33
2022-11-05T12:29:42.683Z,45.95
2022-11-05T12:32:28.200Z,45.76
2022-11-05T12:35:01.921Z,45.23
2022-11-05T12:37:53.317Z,45.02
2022-11-05T12:40:54.280Z,44.01
2022-11-05T12:43:36.470Z,43.96
2022-11-05T12:46:08.899Z,43.82
2022-11-05T12:48:47.569Z,43.85
2022-11-05T12:51:28.476Z,43.70
2022-11-05T12:54:23.430Z,43.74
2022-11-05T12:56:58.111Z,43.65
2022-11-05T12:59:28.790Z,43.69
2022-11-05T13:02:12.739Z,43.86
2022-11-05T13:05:01.497Z,44.14
2022-11-05T13:07:33.817Z,44.67
2022-11-05T13:10:13.806Z,44.45
2022-11-05T13:12:42.648Z,45.41
2022-11-05T13:15:29.681Z,45.95
2022-11-05T13:18:05.238Z,46.25
2022-11-05T13:20:37.858Z,46.24
2022-11-05T13:23:26.261Z,46.06
2022-11-05T13:25:58.299Z,46.19
2022-11-05T13:29:00.261Z,45.88
2022-11-05T13:31:33.363Z,46.42
2022-11-05T13:34:05.262Z,46.19
2022-11-05T13:37:06.472Z,46.45
2022-11-05T13:39:55.475Z,46.81
2022-11-05T13:43:03.780Z,47.32
2022-11-05T13:46:00.121Z,47.28
2022-11-05T13:49:09.337Z,47.23
2022-11-05T13:51:59.471Z,47.13
2022-11-05T13:54:45.952Z,47.82
2022-11-05T13:57:31.378Z,47.74
2022-11-05T14:00:11.756Z,48.03
2022-11-05T14:02:47.117Z,47.81
2022-11-05T14:05:38.898Z,48.21
2022-11-05T14:08:20.575Z,48.75
2022-11-05T14:11:00.169Z,49.05
2022-11-05T14:13:38.029Z,48.46
2022-11-05T14:16:09.291Z,48.40
2022-11-05T14:18:38.336Z,48.71
2022-11-05T14:21:07.196Z,48.94
2022-11-05T14:23:40.634Z,49.04
2022-11-05T14:26:28.739Z,49.72
2022-11-05T14:29:04.707Z,51.24
2022-11-05T14:34:44.068Z,51.01
2022-11-05T14:37:13.969Z,50.98
2022-11-05T14:39:44.879Z,51.39
2022-11-05T14:42:25.269Z,51.91
2022-11-05T14:45:24.551Z,52.27
2022-11-05T14:47:58.059Z,52.14
2022-11-05T14:50:36.636Z,52.76
2022-11-05T14:53:11.463Z,52.88
2022-11-05T14:55:44.331Z,53.14
2022-11-05T14:58:25.978Z,53.31
2022-11-05T15:00:54.172Z,53.46
2022-11-05T15:03:32.383Z,53.47
2022-11-05T15:06:08.586Z,53.82
2022-11-05T15:09:05.924Z,54.93
2022-11-05T15:11:46.697Z,54.99
2022-11-05T15:14:20.762Z,55.55
2022-11-05T15:16:54.893Z,58.24
2022-11-05T15:19:27.540Z,60.37
2022-11-05T15:21:58.527Z,61.75
2022-11-05T15:24:28.451Z,63.36
2022-11-05T15:27:13.844Z,64.89
2022-11-05T15:29:41.170Z,67.64
2022-11-05T15:32:17.920Z,69.51
2022-11-05T15:34:57.437Z,71.09
2022-11-05T15:37:27.089Z,72.62
2022-11-05T15:39:55.785Z,73.54
2022-11-05T15:42:25.646Z,74.33
2022-11-05T15:44:54.959Z,74.90
2022-11-05T15:47:29.028Z,75.33
2022-11-05T15:50:19.789Z,75.45
2022-11-05T15:52:54.090Z,76.76
2022-11-05T15:55:28.585Z,77.52
2022-11-05T15:58:07.060Z,78.37
2022-11-05T16:00:36.923Z,78.75
2022-11-05T16:03:19.168Z,79.28
2022-11-05T16:05:47.650Z,79.75
2022-11-05T16:08:24.911Z,80.37
2022-11-05T16:10:57.776Z,81.29
2022-11-05T16:13:33.442Z,82.35
2022-11-05T16:16:04.527Z,82.78
2022-11-05T16:18:42.622Z,82.14
2022-11-05T16:21:17.687Z,82.09
2022-11-05T16:23:53.496Z,82.86
2022-11-05T16:29:26.044Z,83.64
2022-11-05T16:31:55.414Z,83.96
2022-11-05T16:34:31.895Z,84.09
2022-11-05T16:36:59.740Z,84.41
2022-11-05T16:39:26.889Z,84.53
2022-11-05T16:41:53.910Z,84.80
2022-11-05T16:44:21.499Z,85.22
2022-11-05T16:46:50.347Z,86.17
2022-11-05T16:49:18.060Z,87.14
2022-11-05T16:51:45.248Z,87.05
2022-11-05T16:54:12.179Z,87.44
2022-11-05T16:56:40.271Z,88.27
2022-11-05T16:59:11.317Z,89.40
2022-11-05T17:01:41.297Z,89.04
2022-11-05T17:04:11.408Z,90.04
2022-11-05T17:06:41.258Z,90.68
2022-11-05T17:09:08.548Z,91.87
2022-11-05T17:11:35.592Z,90.18
2022-11-05T17:14:04.422Z,88.72
2022-11-05T17:16:32.452Z,87.90
2022-11-05T17:19:02.106Z,87.24
2022-11-05T17:21:29.226Z,86.92
2022-11-05T17:23:57.738Z,84.48
2022-11-05T17:26:25.095Z,84.79
2022-11-05T17:28:54.148Z,84.00
2022-11-05T17:31:21.042Z,82.78
2022-11-05T17:33:50.886Z,81.19
2022-11-05T17:36:17.891Z,80.34
2022-11-05T17:38:44.833Z,80.19
2022-11-05T17:41:20.628Z,79.64
2022-11-05T17:43:48.295Z,79.87
2022-11-05T17:46:17.516Z,79.87
2022-11-05T17:48:46.289Z,80.08
2022-11-05T17:51:17.943Z,80.24
2022-11-05T17:53:45.934Z,80.70
2022-11-05T17:56:26.169Z,80.94
2022-11-05T17:58:55.814Z,81.55
2022-11-05T18:01:29.142Z,82.14
2022-11-05T18:03:56.419Z,83.49
2022-11-05T18:06:23.658Z,86.18
2022-11-05T18:08:50.699Z,86.63
2022-11-05T18:11:17.880Z,87.35
2022-11-05T18:13:44.969Z,87.79
2022-11-05T18:16:12.149Z,87.57
2022-11-05T18:18:41.851Z,92.47
2022-11-05T18:21:08.856Z,88.70
2022-11-05T18:23:36.117Z,89.46
2022-11-05T18:26:09.889Z,89.94
2022-11-05T18:28:37.925Z,90.56
2022-11-05T18:31:08.285Z,91.08
2022-11-05T18:33:35.430Z,91.76
2022-11-05T18:36:02.594Z,92.22
2022-11-05T18:38:31.250Z,93.27
2022-11-05T18:40:58.190Z,94.27
2022-11-05T18:43:25.126Z,95.46
2022-11-05T18:45:56.396Z,95.26
2022-11-05T18:48:23.266Z,97.42
2022-11-05T18:50:50.059Z,97.63
2022-11-05T18:53:16.965Z,97.81
2022-11-05T18:55:51.126Z,99.46
2022-11-05T18:58:20.781Z,100.00
2022-11-05T19:00:48.772Z,100.00
2022-11-05T19:03:15.933Z,100.00
2022-11-05T19:05:42.881Z,100.00
2022-11-05T19:08:11.940Z,100.00
2022-11-05T19:10:41.157Z,100.00
2022-11-05T19:13:18.730Z,100.00
2022-11-05T19:15:45.723Z,100.00
2022-11-05T19:18:13.552Z,100.00
2022-11-05T19:20:40.615Z,100.00
2022-11-05T19:23:09.967Z,100.00
2022-11-05T19:25:40.395Z,100.00
2022-11-05T19:28:08.362Z,100.00
2022-11-05T19:30:35.386Z,100.00
2022-11-05T19:33:02.357Z,100.00
2022-11-05T19:35:34.663Z,100.00
2022-11-05T19:38:08.067Z,100.00
2022-11-05T19:40:39.928Z,100.00
2022-11-05T19:43:07.478Z,100.00
2022-11-05T19:45:49.572Z,100.00
2022-11-05T19:48:19.781Z,100.00
2022-11-05T19:50:47.448Z,100.00
2022-11-05T19:53:14.371Z,100.00
2022-11-05T19:55:41.690Z,100.00
2022-11-05T19:58:10.404Z,100.00
2022-11-05T20:00:41.148Z,100.00
2022-11-05T20:03:11.153Z,100.00
2022-11-05T20:05:40.056Z,100.00
2022-11-05T20:08:09.525Z,100.00
2022-11-05T20:10:39.646Z,100.00
2022-11-05T20:13:06.676Z,100.00
2022-11-05T20:15:39.002Z,100.00
2022-11-05T20:18:07.984Z,100.00
2022-11-05T20:20:35.762Z,100.00
2022-11-05T20:23:02.972Z,100.00
2022-11-05T20:25:37.371Z,100.00
2022-11-05T20:28:14.007Z,100.00
2022-11-05T20:30:41.703Z,100.00
2022-11-05T20:33:09.033Z,100.00
2022-11-05T20:35:41.874Z,100.00
2022-11-05T20:38:10.047Z,100.00
2022-11-05T20:40:40.170Z,100.00
2022-11-05T20:43:07.302Z,100.00
2022-11-05T20:45:34.397Z,100.00
2022-11-05T20:48:01.349Z,100.00
2022-11-05T20:50:29.045Z,100.00
2022-11-05T20:52:56.350Z,100.00
2022-11-05T20:55:23.303Z,100.00
2022-11-05T20:57:50.259Z,100.00
2022-11-05T21:00:19.756Z,100.00
2022-11-05T21:02:46.771Z,100.00
2022-11-05T21:05:13.800Z,100.00
2022-11-05T21:07:42.550Z,100.00
2022-11-05T21:10:12.670Z,100.00
2022-11-05T21:12:40.047Z,100.00
2022-11-05T21:15:07.756Z,100.00
2022-11-05T21:17:35.589Z,100.00
2022-11-05T21:20:02.855Z,100.00
2022-11-05T21:22:34.050Z,100.00
2022-11-05T21:25:02.572Z,100.00
2022-11-05T21:27:29.517Z,100.00
2022-11-05T21:29:56.573Z,100.00
2022-11-05T21:32:23.408Z,100.00
2022-11-05T21:34:50.631Z,100.00
2022-11-05T21:37:20.558Z,100.00
2022-11-05T21:39:47.449Z,100.00
2022-11-05T21:42:14.365Z,100.00
2022-11-05T21:44:41.354Z,100.00
2022-11-05T21:47:10.180Z,100.00
2022-11-05T21:49:41.033Z,100.00
2022-11-05T21:52:26.455Z,100.00
2022-11-05T21:55:13.379Z,100.00
2022-11-05T21:58:01.993Z,100.00
2022-11-05T22:00:30.361Z,100.00
2022-11-05T22:03:00.206Z,100.00
2022-11-05T22:05:30.475Z,100.00
2022-11-05T22:07:57.845Z,100.00
2022-11-05T22:10:24.782Z,100.00
2022-11-05T22:12:54.149Z,100.00
2022-11-05T22:15:21.178Z,100.00
2022-11-05T22:17:50.708Z,100.00
2022-11-05T22:20:17.822Z,100.00
2022-11-05T22:22:45.038Z,100.00
2022-11-05T22:25:13.589Z,100.00
2022-11-05T22:27:40.410Z,100.00
2022-11-05T22:30:10.185Z,100.00
2022-11-05T22:32:39.104Z,100.00
2022-11-05T22:35:06.795Z,100.00
2022-11-05T22:37:33.587Z,100.00
2022-11-05T22:40:00.295Z,100.00
2022-11-05T22:42:27.158Z,100.00
2022-11-05T22:44:54.732Z,100.00
2022-11-05T22:47:21.887Z,100.00
2022-11-05T22:49:50.357Z,100.00
2022-11-05T22:52:17.333Z,100.00
2022-11-05T22:54:44.501Z,100.00
2022-11-05T22:57:11.331Z,100.00
2022-11-05T22:59:38.128Z,100.00
2022-11-05T23:02:09.456Z,100.00
2022-11-05T23:04:37.267Z,100.00
2022-11-05T23:07:27.311Z,100.00
2022-11-05T23:10:14.077Z,100.00
2022-11-05T23:12:43.358Z,100.00
2022-11-05T23:15:30.725Z,100.00
2022-11-05T23:18:16.163Z,100.00
2022-11-05T23:21:01.677Z,100.00
2022-11-05T23:23:47.312Z,100.00
2022-11-05T23:26:33.018Z,100.00
2022-11-05T23:28:59.910Z,100.00
2022-11-05T23:31:45.077Z,100.00
2022-11-05T23:34:11.831Z,100.00
2022-11-05T23:36:57.169Z,100.00
2022-11-05T23:39:23.995Z,100.00
2022-11-05T23:42:09.222Z,100.00
2022-11-05T23:44:54.218Z,100.00
2022-11-05T23:47:39.688Z,100.00
2022-11-05T23:50:06.643Z,100.00
2022-11-05T23:52:33.420Z,100.00
2022-11-05T23:55:00.094Z,100.00
2022-11-05T23:57:26.931Z,100.00
2022-11-05T23:59:53.552Z,100.00
